createdAt,value
2023-05-17T00:00:22.850Z,23.32
2023-05-17T00:01:21.880Z,23.34
2023-05-17T00:02:22.914Z,23.29
2023-05-17T00:03:21.967Z,23.32
2023-05-17T00:04:23.080Z,23.32
2023-05-17T00:05:22.046Z,23.32
2023-05-17T00:06:22.163Z,23.32
2023-05-17T00:07:22.245Z,23.32
2023-05-17T00:08:22.172Z,23.31
2023-05-17T00:09:23.226Z,23.31
2023-05-17T00:10:22.346Z,23.29
2023-05-17T00:11:22.315Z,23.29
2023-05-17T00:12:23.366Z,23.32
2023-05-17T00:13:22.414Z,23.31
2023-05-17T00:14:23.456Z,23.29
2023-05-17T00:15:22.488Z,23.31
2023-05-17T00:16:23.520Z,23.32
2023-05-17T00:17:23.582Z,23.31
2023-05-17T00:18:22.685Z,23.32
2023-05-17T00:19:22.748Z,23.32
2023-05-17T00:20:22.678Z,23.29
2023-05-17T00:21:23.713Z,23.29
2023-05-17T00:22:23.762Z,23.28
2023-05-17T00:23:22.916Z,23.28
2023-05-17T00:24:23.848Z,23.31
2023-05-17T00:25:22.887Z,23.29
2023-05-17T00:26:23.940Z,23.29
2023-05-17T00:27:23.963Z,23.29
2023-05-17T00:28:24.002Z,23.29
2023-05-17T00:29:23.081Z,23.29
2023-05-17T00:30:23.080Z,23.29
2023-05-17T00:31:24.120Z,23.29
2023-05-17T00:32:23.193Z,23.28
2023-05-17T00:33:24.233Z,23.28
2023-05-17T00:34:23.277Z,23.27
2023-05-17T00:35:24.590Z,23.27
2023-05-17T00:36:23.350Z,23.28
2023-05-17T00:37:23.399Z,23.25
2023-05-17T00:38:24.429Z,23.27
2023-05-17T00:39:24.654Z,23.27
2023-05-17T00:40:24.512Z,23.27
2023-05-17T00:41:24.563Z,23.27
2023-05-17T00:42:23.622Z,23.27
2023-05-17T00:43:23.659Z,23.25
2023-05-17T00:44:23.703Z,23.25
2023-05-17T00:45:24.740Z,23.24
2023-05-17T00:46:24.808Z,23.27
2023-05-17T00:47:23.853Z,23.24
2023-05-17T00:48:23.971Z,23.25
2023-05-17T00:49:24.925Z,23.24
2023-05-17T00:50:24.968Z,23.24
2023-05-17T00:51:25.007Z,23.22
2023-05-17T00:52:25.048Z,23.25
2023-05-17T00:53:25.084Z,23.24
2023-05-17T00:54:24.141Z,23.24
2023-05-17T00:55:25.485Z,23.22
2023-05-17T00:56:25.248Z,23.27
2023-05-17T00:57:24.294Z,23.25
2023-05-17T00:58:25.320Z,23.25
2023-05-17T00:59:25.375Z,23.25
2023-05-17T01:00:24.416Z,23.24
2023-05-17T01:01:24.450Z,23.25
2023-05-17T01:02:25.530Z,23.24
2023-05-17T01:03:24.615Z,23.25
2023-05-17T01:04:24.688Z,23.25
2023-05-17T01:05:24.644Z,23.22
2023-05-17T01:06:25.685Z,23.24
2023-05-17T01:07:25.731Z,23.22
2023-05-17T01:08:24.762Z,23.21
2023-05-17T01:09:25.816Z,23.22
2023-05-17T01:10:25.842Z,23.21
2023-05-17T01:11:25.107Z,23.21
2023-05-17T01:12:25.955Z,23.22
2023-05-17T01:13:24.985Z,23.24
2023-05-17T01:14:25.031Z,23.22
2023-05-17T01:15:26.351Z,23.21
2023-05-17T01:16:26.116Z,23.21
2023-05-17T01:17:26.211Z,23.21
2023-05-17T01:18:25.256Z,23.22
2023-05-17T01:19:26.397Z,23.21
2023-05-17T01:20:25.326Z,23.21
2023-05-17T01:21:26.335Z,23.21
2023-05-17T01:22:25.386Z,23.21
2023-05-17T01:23:26.417Z,23.20
2023-05-17T01:24:26.483Z,23.21
2023-05-17T01:25:26.691Z,23.18
2023-05-17T01:26:26.650Z,23.22
2023-05-17T01:27:26.606Z,23.21
2023-05-17T01:28:26.628Z,23.21
2023-05-17T01:29:25.665Z,23.21
2023-05-17T01:30:25.732Z,23.20
2023-05-17T01:31:26.776Z,23.22
2023-05-17T01:32:26.891Z,23.20
2023-05-17T01:33:25.931Z,23.18
2023-05-17T01:34:26.906Z,23.20
2023-05-17T01:35:26.105Z,23.20
2023-05-17T01:36:26.966Z,23.18
2023-05-17T01:37:27.012Z,23.18
2023-05-17T01:38:26.087Z,23.20
2023-05-17T01:39:27.133Z,23.21
2023-05-17T01:40:26.165Z,23.18
2023-05-17T01:41:26.221Z,23.21
2023-05-17T01:42:26.354Z,23.20
2023-05-17T01:43:26.324Z,23.18
2023-05-17T01:44:27.349Z,23.18
2023-05-17T01:45:26.760Z,23.18
2023-05-17T01:46:26.431Z,23.18
2023-05-17T01:47:26.499Z,23.20
2023-05-17T01:48:27.561Z,23.18
2023-05-17T01:49:27.574Z,23.17
2023-05-17T01:50:26.610Z,23.17
2023-05-17T01:51:26.660Z,23.17
2023-05-17T01:52:27.714Z,23.15
2023-05-17T01:53:26.748Z,23.17
2023-05-17T01:54:27.821Z,23.15
2023-05-17T01:55:28.043Z,23.17
2023-05-17T01:56:26.886Z,23.14
2023-05-17T01:57:27.954Z,23.17
2023-05-17T01:58:27.109Z,23.13
2023-05-17T01:59:28.081Z,23.14
2023-05-17T02:00:28.063Z,23.15
2023-05-17T02:01:28.112Z,23.14
2023-05-17T02:02:27.173Z,23.17
2023-05-17T02:03:28.225Z,23.18
2023-05-17T02:04:27.245Z,23.14
2023-05-17T02:05:28.481Z,23.14
2023-05-17T02:06:27.308Z,23.14
2023-05-17T02:07:28.354Z,23.18
2023-05-17T02:08:28.399Z,23.17
2023-05-17T02:09:27.467Z,23.15
2023-05-17T02:10:28.482Z,23.14
2023-05-17T02:11:28.572Z,23.15
2023-05-17T02:12:27.571Z,23.15
2023-05-17T02:13:28.632Z,23.17
2023-05-17T02:14:27.905Z,23.14
2023-05-17T02:15:28.910Z,23.13
2023-05-17T02:16:28.809Z,23.15
2023-05-17T02:17:28.992Z,23.14
2023-05-17T02:18:28.010Z,23.14
2023-05-17T02:19:29.020Z,23.17
2023-05-17T02:20:28.998Z,23.14
2023-05-17T02:21:28.020Z,23.11
2023-05-17T02:22:28.070Z,23.13
2023-05-17T02:23:29.162Z,23.14
2023-05-17T02:24:29.200Z,23.13
2023-05-17T02:25:28.571Z,23.14
2023-05-17T02:26:28.299Z,23.14
2023-05-17T02:27:28.349Z,23.13
2023-05-17T02:28:29.390Z,23.11
2023-05-17T02:29:29.565Z,23.13
2023-05-17T02:30:28.499Z,23.10
2023-05-17T02:31:28.552Z,23.10
2023-05-17T02:32:29.746Z,23.11
2023-05-17T02:33:29.923Z,23.11
2023-05-17T02:34:29.768Z,23.10
2023-05-17T02:35:29.137Z,23.10
2023-05-17T02:36:29.820Z,23.09
2023-05-17T02:37:29.870Z,23.11
2023-05-17T02:38:28.948Z,23.10
2023-05-17T02:39:30.013Z,23.11
2023-05-17T02:40:29.061Z,23.10
2023-05-17T02:41:30.119Z,23.13
2023-05-17T02:42:29.163Z,23.11
2023-05-17T02:43:30.217Z,23.10
2023-05-17T02:44:30.288Z,23.09
2023-05-17T02:45:30.707Z,23.09
2023-05-17T02:46:29.406Z,23.09
2023-05-17T02:47:30.552Z,23.10
2023-05-17T02:48:30.522Z,23.10
2023-05-17T02:49:30.585Z,23.10
2023-05-17T02:50:30.633Z,23.09
2023-05-17T02:51:30.686Z,23.10
2023-05-17T02:52:30.732Z,23.09
2023-05-17T02:53:30.818Z,23.10
2023-05-17T02:54:30.866Z,23.10
2023-05-17T02:55:30.981Z,23.09
2023-05-17T02:56:29.965Z,23.09
2023-05-17T02:57:31.022Z,23.09
2023-05-17T02:58:30.075Z,23.09
2023-05-17T02:59:31.154Z,23.10
2023-05-17T03:00:30.195Z,23.10
2023-05-17T03:01:31.357Z,23.09
2023-05-17T03:02:31.384Z,23.10
2023-05-17T03:03:31.517Z,23.09
2023-05-17T03:04:31.542Z,23.07
2023-05-17T03:05:31.516Z,23.07
2023-05-17T03:06:31.550Z,23.07
2023-05-17T03:07:31.607Z,23.07
2023-05-17T03:08:30.658Z,23.07
2023-05-17T03:09:30.732Z,23.09
2023-05-17T03:10:31.783Z,23.06
2023-05-17T03:11:31.846Z,23.06
2023-05-17T03:12:31.904Z,23.06
2023-05-17T03:13:31.996Z,23.06
2023-05-17T03:14:32.013Z,23.07
2023-05-17T03:15:31.169Z,23.06
2023-05-17T03:16:32.143Z,23.04
2023-05-17T03:17:31.399Z,23.06
2023-05-17T03:18:31.408Z,23.04
2023-05-17T03:19:32.379Z,23.06
2023-05-17T03:20:31.380Z,23.06
2023-05-17T03:21:32.438Z,23.06
2023-05-17T03:22:31.494Z,23.01
2023-05-17T03:23:31.582Z,23.01
2023-05-17T03:24:32.641Z,23.04
2023-05-17T03:25:32.700Z,23.03
2023-05-17T03:26:32.769Z,23.06
2023-05-17T03:27:31.876Z,23.06
2023-05-17T03:28:32.901Z,23.04
2023-05-17T03:29:32.974Z,23.04
2023-05-17T03:30:32.021Z,23.04
2023-05-17T03:31:32.084Z,23.03
2023-05-17T03:32:33.162Z,23.03
2023-05-17T03:33:33.428Z,23.00
2023-05-17T03:34:33.273Z,23.03
2023-05-17T03:35:33.323Z,23.03
2023-05-17T03:36:33.367Z,23.03
2023-05-17T03:37:33.440Z,23.01
2023-05-17T03:38:33.500Z,23.00
2023-05-17T03:39:33.580Z,23.00
2023-05-17T03:40:33.619Z,23.00
2023-05-17T03:41:32.687Z,23.00
2023-05-17T03:42:32.748Z,23.01
2023-05-17T03:43:33.816Z,23.00
2023-05-17T03:44:33.886Z,23.01
2023-05-17T03:45:33.940Z,23.00
2023-05-17T03:46:33.007Z,22.99
2023-05-17T03:47:34.079Z,23.00
2023-05-17T03:48:35.287Z,23.00
2023-05-17T03:49:33.340Z,23.00
2023-05-17T03:50:34.101Z,23.01
2023-05-17T03:51:34.098Z,22.99
2023-05-17T03:52:33.093Z,23.00
2023-05-17T03:53:33.087Z,22.97
2023-05-17T03:54:34.097Z,23.00
2023-05-17T03:55:33.075Z,22.99
2023-05-17T03:56:33.070Z,23.01
2023-05-17T03:57:34.055Z,22.99
2023-05-17T03:58:33.052Z,22.99
2023-05-17T03:59:34.041Z,22.99
2023-05-17T04:00:33.028Z,22.99
2023-05-17T04:01:34.021Z,22.99
2023-05-17T04:02:33.078Z,22.99
2023-05-17T04:03:33.109Z,22.97
2023-05-17T04:04:34.026Z,22.96
2023-05-17T04:05:33.127Z,22.99
2023-05-17T04:06:32.995Z,22.97
2023-05-17T04:07:32.972Z,22.99
2023-05-17T04:08:33.986Z,22.96
2023-05-17T04:09:33.973Z,22.94
2023-05-17T04:10:33.965Z,22.97
2023-05-17T04:11:33.953Z,22.97
2023-05-17T04:12:32.960Z,22.94
2023-05-17T04:13:32.934Z,22.97
2023-05-17T04:14:33.992Z,22.94
2023-05-17T04:15:34.091Z,22.96
2023-05-17T04:16:33.126Z,22.91
2023-05-17T04:17:33.225Z,22.96
2023-05-17T04:18:33.291Z,22.94
2023-05-17T04:19:33.364Z,22.96
2023-05-17T04:20:33.373Z,22.96
2023-05-17T04:21:34.592Z,22.94
2023-05-17T04:22:33.474Z,22.94
2023-05-17T04:23:34.550Z,22.96
2023-05-17T04:24:33.612Z,22.91
2023-05-17T04:25:34.660Z,22.93
2023-05-17T04:26:33.722Z,22.91
2023-05-17T04:27:34.808Z,22.94
2023-05-17T04:28:34.880Z,22.93
2023-05-17T04:29:34.943Z,22.91
2023-05-17T04:30:34.963Z,22.94
2023-05-17T04:31:34.035Z,22.93
2023-05-17T04:32:35.084Z,22.91
2023-05-17T04:33:34.184Z,22.91
2023-05-17T04:34:35.206Z,22.91
2023-05-17T04:35:34.273Z,22.91
2023-05-17T04:36:35.353Z,22.90
2023-05-17T04:37:35.497Z,22.91
2023-05-17T04:38:35.449Z,22.90
2023-05-17T04:39:35.545Z,22.91
2023-05-17T04:40:34.563Z,22.90
2023-05-17T04:41:35.622Z,22.91
2023-05-17T04:42:34.671Z,22.91
2023-05-17T04:43:35.733Z,22.90
2023-05-17T04:44:34.776Z,22.91
2023-05-17T04:45:34.829Z,22.90
2023-05-17T04:46:35.847Z,22.90
2023-05-17T04:47:35.952Z,22.90
2023-05-17T04:48:34.984Z,22.89
2023-05-17T04:49:35.965Z,22.90
2023-05-17T04:50:36.034Z,22.90
2023-05-17T04:51:35.061Z,22.87
2023-05-17T04:52:36.113Z,22.89
2023-05-17T04:53:36.372Z,22.89
2023-05-17T04:54:36.169Z,22.89
2023-05-17T04:55:36.219Z,22.90
2023-05-17T04:56:36.265Z,22.87
2023-05-17T04:57:36.287Z,22.87
2023-05-17T04:58:36.326Z,22.89
2023-05-17T04:59:36.371Z,22.89
2023-05-17T05:00:36.410Z,22.89
2023-05-17T05:01:35.511Z,22.87
2023-05-17T05:02:36.551Z,22.89
2023-05-17T05:03:35.626Z,22.90
2023-05-17T05:04:36.572Z,22.89
2023-05-17T05:05:36.622Z,22.90
2023-05-17T05:06:35.707Z,22.93
2023-05-17T05:07:36.750Z,22.97
2023-05-17T05:08:36.784Z,23.07
2023-05-17T05:09:36.969Z,23.20
2023-05-17T05:10:36.885Z,23.25
2023-05-17T05:11:35.886Z,23.31
2023-05-17T05:12:35.932Z,23.44
2023-05-17T05:13:35.924Z,23.52
2023-05-17T05:14:36.926Z,23.63
2023-05-17T05:15:35.958Z,23.65
2023-05-17T05:16:35.967Z,23.70
2023-05-17T05:17:36.105Z,23.69
2023-05-17T05:18:36.093Z,23.73
2023-05-17T05:19:36.039Z,23.65
2023-05-17T05:20:36.059Z,23.41
2023-05-17T05:21:37.051Z,23.18
2023-05-17T05:22:36.103Z,22.90
2023-05-17T05:23:37.130Z,22.66
2023-05-17T05:24:36.119Z,22.58
2023-05-17T05:25:37.309Z,22.39
2023-05-17T05:26:37.140Z,22.22
2023-05-17T05:27:36.179Z,22.07
2023-05-17T05:28:36.182Z,21.97
2023-05-17T05:29:36.303Z,22.03
2023-05-17T05:30:37.341Z,22.11
2023-05-17T05:31:37.287Z,22.27
2023-05-17T05:32:37.371Z,22.45
2023-05-17T05:33:37.487Z,22.59
2023-05-17T05:34:36.330Z,22.70
2023-05-17T05:35:37.349Z,22.86
2023-05-17T05:36:37.360Z,22.97
2023-05-17T05:37:37.435Z,23.03
2023-05-17T05:38:37.459Z,23.10
2023-05-17T05:39:36.534Z,23.17
2023-05-17T05:40:36.913Z,23.22
2023-05-17T05:41:37.729Z,23.22
2023-05-17T05:42:37.664Z,23.29
2023-05-17T05:43:37.706Z,23.34
2023-05-17T05:44:36.761Z,23.40
2023-05-17T05:45:36.861Z,23.37
2023-05-17T05:46:37.844Z,23.37
2023-05-17T05:47:36.912Z,23.45
2023-05-17T05:48:36.981Z,23.48
2023-05-17T05:49:37.954Z,23.52
2023-05-17T05:50:37.028Z,23.49
2023-05-17T05:51:38.044Z,23.45
2023-05-17T05:52:38.087Z,23.46
2023-05-17T05:53:38.104Z,23.46
2023-05-17T05:54:38.109Z,23.52
2023-05-17T05:55:37.149Z,23.62
2023-05-17T05:56:38.174Z,23.61
2023-05-17T05:57:37.419Z,23.55
2023-05-17T05:58:37.232Z,23.66
2023-05-17T05:59:37.213Z,23.63
2023-05-17T06:00:37.432Z,23.70
2023-05-17T06:01:37.192Z,23.74
2023-05-17T06:02:37.196Z,23.77
2023-05-17T06:03:38.197Z,23.86
2023-05-17T06:04:45.129Z,23.82
2023-05-17T06:05:38.238Z,23.74
2023-05-17T06:07:37.166Z,23.84
2023-05-17T06:08:38.166Z,23.90
2023-05-17T06:09:38.174Z,23.90
2023-05-17T06:10:37.150Z,23.93
2023-05-17T06:11:38.130Z,23.92
2023-05-17T06:12:37.128Z,23.97
2023-05-17T06:13:38.242Z,23.95
2023-05-17T06:14:37.107Z,23.95
2023-05-17T06:15:38.120Z,23.95
2023-05-17T06:16:38.107Z,23.97
2023-05-17T06:17:38.116Z,24.07
2023-05-17T06:18:38.247Z,23.99
2023-05-17T06:19:38.199Z,24.09
2023-05-17T06:20:37.068Z,24.14
2023-05-17T06:21:37.066Z,24.21
2023-05-17T06:22:37.086Z,24.25
2023-05-17T06:23:37.042Z,24.37
2023-05-17T06:24:37.040Z,24.42
2023-05-17T06:25:38.037Z,24.44
2023-05-17T06:26:37.033Z,24.48
2023-05-17T06:27:38.016Z,24.51
2023-05-17T06:28:39.052Z,24.51
2023-05-17T06:29:38.049Z,24.50
2023-05-17T06:30:37.003Z,24.50
2023-05-17T06:31:36.981Z,24.50
2023-05-17T06:32:38.060Z,24.55
2023-05-17T06:33:38.093Z,24.61
2023-05-17T06:34:38.102Z,24.64
2023-05-17T06:35:47.967Z,24.62
2023-05-17T06:36:38.763Z,24.66
2023-05-17T06:37:38.139Z,24.69
2023-05-17T06:38:38.106Z,24.68
2023-05-17T06:39:38.128Z,24.68
2023-05-17T06:40:38.121Z,24.71
2023-05-17T06:41:38.112Z,24.71
2023-05-17T06:42:38.097Z,24.73
2023-05-17T06:43:38.135Z,24.69
2023-05-17T06:44:37.080Z,24.75
2023-05-17T06:45:37.179Z,24.79
2023-05-17T06:46:38.033Z,24.82
2023-05-17T06:47:38.164Z,24.81
2023-05-17T06:48:38.236Z,24.85
2023-05-17T06:49:38.022Z,24.79
2023-05-17T06:50:38.024Z,24.83
2023-05-17T06:51:37.060Z,24.85
2023-05-17T06:52:38.049Z,24.86
2023-05-17T06:53:37.065Z,24.86
2023-05-17T06:54:38.109Z,24.82
2023-05-17T06:55:37.440Z,24.72
2023-05-17T06:56:38.220Z,24.62
2023-05-17T06:57:37.268Z,24.50
2023-05-17T06:58:38.252Z,24.41
2023-05-17T06:59:37.331Z,24.32
2023-05-17T07:00:37.267Z,24.27
2023-05-17T07:01:38.498Z,24.23
2023-05-17T07:02:38.419Z,24.18
2023-05-17T07:03:37.468Z,24.14
2023-05-17T07:04:38.346Z,24.14
2023-05-17T07:05:37.424Z,24.10
2023-05-17T07:06:38.352Z,24.09
2023-05-17T07:07:38.379Z,24.06
2023-05-17T07:08:38.390Z,24.06
2023-05-17T07:09:38.413Z,24.07
2023-05-17T07:10:38.393Z,24.04
2023-05-17T07:11:38.413Z,24.01
2023-05-17T07:12:38.426Z,24.01
2023-05-17T07:13:38.453Z,23.97
2023-05-17T07:14:37.471Z,23.96
2023-05-17T07:15:38.493Z,23.95
2023-05-17T07:16:38.562Z,23.95
2023-05-17T07:17:37.622Z,23.95
2023-05-17T07:18:37.687Z,23.92
2023-05-17T07:19:38.747Z,23.92
2023-05-17T07:20:37.633Z,23.90
2023-05-17T07:21:38.631Z,23.90
2023-05-17T07:22:38.651Z,23.89
2023-05-17T07:23:37.672Z,23.90
2023-05-17T07:24:37.684Z,23.89
2023-05-17T07:25:38.903Z,23.87
2023-05-17T07:26:38.751Z,23.90
2023-05-17T07:27:38.784Z,23.89
2023-05-17T07:28:37.801Z,23.86
2023-05-17T07:29:37.886Z,23.92
2023-05-17T07:30:37.861Z,23.87
2023-05-17T07:31:38.867Z,23.89
2023-05-17T07:32:37.921Z,23.87
2023-05-17T07:33:39.014Z,23.87
2023-05-17T07:34:39.017Z,23.86
2023-05-17T07:35:39.011Z,23.84
2023-05-17T07:36:38.109Z,23.86
2023-05-17T07:37:38.100Z,23.82
2023-05-17T07:38:38.124Z,23.84
2023-05-17T07:39:38.171Z,23.84
2023-05-17T07:40:38.258Z,23.83
2023-05-17T07:41:38.256Z,23.83
2023-05-17T07:42:38.307Z,23.82
2023-05-17T07:43:39.328Z,23.79
2023-05-17T07:44:39.368Z,23.82
2023-05-17T07:45:38.404Z,23.82
2023-05-17T07:46:39.501Z,23.82
2023-05-17T07:47:39.513Z,23.83
2023-05-17T07:48:38.532Z,23.92
2023-05-17T07:49:39.623Z,23.99
2023-05-17T07:50:39.513Z,24.04
2023-05-17T07:51:39.976Z,24.10
2023-05-17T07:52:39.580Z,24.14
2023-05-17T07:53:39.644Z,24.18
2023-05-17T07:54:39.695Z,24.14
2023-05-17T07:55:39.750Z,24.18
2023-05-17T07:56:39.766Z,24.18
2023-05-17T07:57:38.814Z,24.20
2023-05-17T07:58:39.867Z,24.23
2023-05-17T07:59:38.950Z,24.27
2023-05-17T08:00:39.994Z,24.27
2023-05-17T08:01:39.048Z,24.30
2023-05-17T08:02:40.153Z,24.31
2023-05-17T08:03:40.179Z,24.32
2023-05-17T08:04:39.248Z,24.34
2023-05-17T08:05:39.302Z,24.37
2023-05-17T08:06:40.345Z,24.39
2023-05-17T08:07:39.373Z,24.41
2023-05-17T08:08:40.446Z,24.41
2023-05-17T08:09:39.469Z,24.42
2023-05-17T08:10:39.533Z,24.45
2023-05-17T08:11:40.564Z,24.48
2023-05-17T08:12:40.594Z,24.45
2023-05-17T08:13:39.714Z,24.48
2023-05-17T08:14:40.699Z,24.51
2023-05-17T08:15:40.738Z,24.52
2023-05-17T08:16:40.832Z,24.51
2023-05-17T08:17:39.929Z,24.52
2023-05-17T08:18:40.997Z,24.52
2023-05-17T08:19:40.953Z,24.54
2023-05-17T08:20:40.995Z,24.54
2023-05-17T08:21:41.478Z,24.56
2023-05-17T08:22:40.074Z,24.56
2023-05-17T08:23:40.111Z,24.58
2023-05-17T08:24:41.187Z,24.62
2023-05-17T08:25:41.199Z,24.62
2023-05-17T08:26:41.280Z,24.62
2023-05-17T08:27:41.275Z,24.62
2023-05-17T08:28:41.307Z,24.61
2023-05-17T08:29:41.327Z,24.65
2023-05-17T08:30:41.381Z,24.65
2023-05-17T08:31:40.403Z,24.65
2023-05-17T08:32:41.511Z,24.66
2023-05-17T08:33:41.552Z,24.69
2023-05-17T08:34:40.529Z,24.69
2023-05-17T08:35:40.552Z,24.71
2023-05-17T08:36:40.979Z,24.73
2023-05-17T08:37:40.674Z,24.76
2023-05-17T08:38:41.645Z,24.76
2023-05-17T08:39:41.721Z,24.78
2023-05-17T08:40:41.717Z,24.83
2023-05-17T08:41:41.993Z,24.79
2023-05-17T08:42:41.740Z,24.81
2023-05-17T08:43:41.780Z,24.78
2023-05-17T08:44:41.810Z,24.79
2023-05-17T08:45:41.852Z,24.71
2023-05-17T08:46:41.975Z,24.45
2023-05-17T08:47:40.972Z,24.13
2023-05-17T08:48:40.969Z,23.83
2023-05-17T08:49:43.050Z,23.52
2023-05-17T08:50:42.014Z,23.32
2023-05-17T08:51:42.505Z,23.14
2023-05-17T08:52:41.140Z,22.99
2023-05-17T08:53:41.135Z,22.80
2023-05-17T08:54:42.172Z,22.69
2023-05-17T08:55:42.009Z,22.58
2023-05-17T08:56:41.477Z,22.45
2023-05-17T08:57:41.185Z,22.32
2023-05-17T08:58:55.469Z,22.27
2023-05-17T08:59:42.207Z,22.19
2023-05-17T09:00:42.190Z,22.14
2023-05-17T09:01:42.238Z,22.10
2023-05-17T09:02:41.237Z,22.04
2023-05-17T09:03:42.257Z,22.03
2023-05-17T09:04:42.241Z,21.99
2023-05-17T09:05:42.244Z,22.00
2023-05-17T09:06:42.174Z,21.94
2023-05-17T09:07:41.157Z,21.90
2023-05-17T09:08:42.116Z,21.87
2023-05-17T09:09:41.142Z,21.83
2023-05-17T09:10:42.106Z,21.77
2023-05-17T09:11:42.112Z,21.72
2023-05-17T09:12:42.094Z,21.65
2023-05-17T09:13:41.102Z,21.62
2023-05-17T09:14:41.101Z,21.60
2023-05-17T09:15:42.058Z,21.56
2023-05-17T09:16:42.064Z,21.48
2023-05-17T09:17:42.174Z,21.44
2023-05-17T09:18:42.226Z,21.41
2023-05-17T09:19:41.102Z,21.36
2023-05-17T09:20:41.050Z,21.35
2023-05-17T09:21:42.066Z,21.35
2023-05-17T09:22:42.018Z,21.32
2023-05-17T09:23:41.458Z,21.32
2023-05-17T09:24:42.007Z,21.31
2023-05-17T09:25:42.024Z,21.32
2023-05-17T09:26:42.522Z,21.27
2023-05-17T09:27:42.004Z,21.25
2023-05-17T09:28:42.143Z,21.21
2023-05-17T09:29:41.992Z,21.21
2023-05-17T09:30:40.984Z,21.18
2023-05-17T09:31:40.965Z,21.15
2023-05-17T09:32:41.977Z,21.11
2023-05-17T09:33:41.970Z,21.08
2023-05-17T09:34:41.950Z,21.01
2023-05-17T09:35:41.934Z,20.98
2023-05-17T09:36:41.927Z,20.93
2023-05-17T09:37:41.900Z,20.93
2023-05-17T09:38:40.904Z,20.86
2023-05-17T09:40:40.912Z,20.83
2023-05-17T09:41:42.150Z,20.81
2023-05-17T09:42:41.926Z,20.83
2023-05-17T09:43:40.891Z,20.81
2023-05-17T09:44:41.498Z,20.80
2023-05-17T09:45:41.915Z,20.76
2023-05-17T09:46:41.968Z,20.74
2023-05-17T09:47:41.099Z,20.73
2023-05-17T09:48:41.132Z,20.70
2023-05-17T09:49:42.074Z,20.76
2023-05-17T09:50:42.081Z,20.84
2023-05-17T09:51:41.511Z,20.94
2023-05-17T09:52:41.187Z,21.08
2023-05-17T09:53:42.189Z,21.24
2023-05-17T09:54:41.271Z,21.35
2023-05-17T09:55:42.237Z,21.53
2023-05-17T09:56:41.391Z,21.70
2023-05-17T09:57:41.340Z,21.87
2023-05-17T09:58:41.293Z,22.08
2023-05-17T09:59:42.314Z,22.28
2023-05-17T10:00:41.304Z,22.41
2023-05-17T10:01:42.308Z,22.54
2023-05-17T10:02:41.441Z,22.63
2023-05-17T10:03:41.413Z,22.74
2023-05-17T10:04:41.504Z,22.77
2023-05-17T10:05:42.533Z,22.80
2023-05-17T10:07:41.474Z,22.85
2023-05-17T10:08:41.475Z,22.83
2023-05-17T10:09:42.605Z,22.80
2023-05-17T10:10:41.508Z,22.79
2023-05-17T10:11:42.514Z,22.76
2023-05-17T10:12:42.532Z,22.74
2023-05-17T10:13:42.574Z,22.74
2023-05-17T10:14:42.575Z,22.72
2023-05-17T10:15:42.590Z,22.70
2023-05-17T10:16:42.597Z,22.74
2023-05-17T10:17:45.352Z,22.76
2023-05-17T10:18:42.693Z,22.77
2023-05-17T10:19:42.670Z,22.76
2023-05-17T10:20:42.570Z,22.76
2023-05-17T10:21:42.579Z,22.76
2023-05-17T10:22:42.605Z,22.74
2023-05-17T10:23:42.614Z,22.74
2023-05-17T10:24:42.584Z,22.74
2023-05-17T10:25:42.562Z,22.76
2023-05-17T10:26:42.544Z,22.76
2023-05-17T10:27:42.549Z,22.74
2023-05-17T10:28:42.514Z,22.73
2023-05-17T10:29:41.539Z,22.76
2023-05-17T10:30:41.535Z,22.73
2023-05-17T10:31:42.536Z,22.73
2023-05-17T10:32:42.662Z,22.73
2023-05-17T10:33:42.594Z,22.74
2023-05-17T10:34:42.471Z,22.76
2023-05-17T10:35:42.485Z,22.76
2023-05-17T10:36:42.613Z,22.79
2023-05-17T10:37:42.464Z,22.85
2023-05-17T10:38:43.228Z,22.90
2023-05-17T10:39:42.427Z,22.96
2023-05-17T10:40:42.431Z,22.93
2023-05-17T10:41:42.567Z,23.01
2023-05-17T10:42:41.421Z,23.04
2023-05-17T10:43:42.410Z,23.09
2023-05-17T10:44:42.434Z,23.14
2023-05-17T10:45:42.522Z,23.24
2023-05-17T10:46:42.374Z,23.37
2023-05-17T10:47:41.435Z,23.44
2023-05-17T10:48:41.374Z,23.48
2023-05-17T10:49:42.354Z,23.54
2023-05-17T10:50:54.059Z,23.52
2023-05-17T10:51:42.365Z,23.59
2023-05-17T10:52:42.339Z,23.59
2023-05-17T10:53:41.338Z,23.63
2023-05-17T10:54:42.329Z,23.63
2023-05-17T10:55:41.305Z,23.62
2023-05-17T10:56:41.326Z,23.63
2023-05-17T10:57:49.890Z,23.66
2023-05-17T10:58:42.317Z,23.68
2023-05-17T10:59:42.276Z,23.70
2023-05-17T11:00:42.300Z,23.69
2023-05-17T11:01:42.587Z,23.70
2023-05-17T11:02:41.284Z,23.72
2023-05-17T11:03:41.236Z,23.70
2023-05-17T11:04:42.298Z,23.74
2023-05-17T11:05:42.285Z,23.72
2023-05-17T11:06:42.316Z,23.74
2023-05-17T11:07:41.276Z,23.77
2023-05-17T11:08:42.212Z,23.76
2023-05-17T11:09:42.201Z,23.80
2023-05-17T11:10:42.223Z,23.80
2023-05-17T11:11:42.197Z,23.82
2023-05-17T11:12:42.230Z,23.80
2023-05-17T11:13:42.185Z,23.84
2023-05-17T11:14:42.172Z,23.83
2023-05-17T11:15:42.163Z,23.84
2023-05-17T11:16:42.173Z,23.82
2023-05-17T11:17:42.253Z,23.83
2023-05-17T11:18:42.315Z,23.89
2023-05-17T11:19:42.282Z,23.90
2023-05-17T11:20:41.307Z,23.90
2023-05-17T11:21:42.110Z,23.93
2023-05-17T11:22:41.121Z,23.96
2023-05-17T11:23:42.102Z,23.95
2023-05-17T11:24:41.097Z,23.99
2023-05-17T11:25:41.089Z,24.00
2023-05-17T11:26:42.103Z,23.97
2023-05-17T11:27:41.080Z,23.96
2023-05-17T11:28:42.067Z,23.95
2023-05-17T11:29:42.085Z,23.97
2023-05-17T11:30:42.061Z,23.99
2023-05-17T11:31:41.044Z,23.97
2023-05-17T11:32:42.102Z,24.01
2023-05-17T11:33:42.130Z,24.01
2023-05-17T11:34:42.235Z,24.00
2023-05-17T11:35:42.031Z,24.04
2023-05-17T11:36:41.018Z,24.09
2023-05-17T11:37:41.994Z,24.09
2023-05-17T11:38:41.997Z,24.10
2023-05-17T11:39:41.982Z,24.13
2023-05-17T11:40:42.030Z,24.13
2023-05-17T11:41:41.982Z,24.11
2023-05-17T11:42:41.967Z,24.06
2023-05-17T11:43:40.962Z,24.03
2023-05-17T11:44:40.990Z,23.99
2023-05-17T11:45:41.927Z,23.95
2023-05-17T11:46:41.937Z,23.96
2023-05-17T11:47:42.127Z,23.92
2023-05-17T11:48:41.967Z,23.92
2023-05-17T11:49:40.953Z,23.86
2023-05-17T11:50:40.909Z,23.86
2023-05-17T11:51:41.903Z,23.83
2023-05-17T11:52:41.921Z,23.84
2023-05-17T11:53:41.876Z,23.80
2023-05-17T11:54:41.895Z,23.80
2023-05-17T11:55:40.877Z,23.76
2023-05-17T11:56:43.663Z,23.77
2023-05-17T11:57:41.836Z,23.77
2023-05-17T11:58:41.835Z,23.77
2023-05-17T11:59:41.831Z,23.76
2023-05-17T12:00:40.818Z,23.76
2023-05-17T12:01:40.806Z,23.73
2023-05-17T12:02:41.872Z,23.72
2023-05-17T12:03:40.809Z,23.73
2023-05-17T12:04:40.926Z,23.73
2023-05-17T12:05:41.871Z,23.72
2023-05-17T12:06:40.856Z,23.70
2023-05-17T12:07:40.772Z,23.72
2023-05-17T12:08:41.777Z,23.70
2023-05-17T12:09:41.787Z,23.70
2023-05-17T12:10:41.753Z,23.70
2023-05-17T12:11:41.741Z,23.70
2023-05-17T12:12:40.759Z,23.72
2023-05-17T12:13:41.715Z,23.70
2023-05-17T12:14:41.711Z,23.70
2023-05-17T12:15:41.734Z,23.70
2023-05-17T12:16:41.740Z,23.69
2023-05-17T12:17:41.763Z,23.70
2023-05-17T12:18:40.868Z,23.72
2023-05-17T12:19:41.847Z,23.73
2023-05-17T12:20:41.666Z,23.73
2023-05-17T12:21:41.696Z,23.77
2023-05-17T12:22:41.689Z,23.80
2023-05-17T12:23:41.675Z,23.83
2023-05-17T12:24:41.708Z,23.84
2023-05-17T12:25:41.635Z,23.87
2023-05-17T12:26:41.723Z,23.90
2023-05-17T12:27:40.617Z,23.93
2023-05-17T12:28:40.713Z,23.95
2023-05-17T12:29:41.607Z,23.96
2023-05-17T12:30:40.597Z,24.00
2023-05-17T12:31:41.604Z,24.04
2023-05-17T12:32:41.715Z,24.01
2023-05-17T12:33:41.708Z,24.01
2023-05-17T12:34:41.561Z,24.03
2023-05-17T12:35:40.565Z,24.00
2023-05-17T12:36:41.542Z,23.99
2023-05-17T12:37:41.597Z,23.97
2023-05-17T12:38:41.609Z,23.96
2023-05-17T12:39:40.541Z,23.96
2023-05-17T12:40:43.356Z,23.97
2023-05-17T12:41:40.512Z,23.93
2023-05-17T12:42:41.509Z,23.93
2023-05-17T12:43:41.516Z,23.93
2023-05-17T12:44:40.504Z,23.92
2023-05-17T12:45:40.483Z,23.92
2023-05-17T12:46:41.495Z,23.92
2023-05-17T12:47:40.533Z,23.90
2023-05-17T12:48:40.509Z,23.90
2023-05-17T12:49:41.453Z,23.92
2023-05-17T12:50:41.456Z,23.87
2023-05-17T12:51:41.443Z,23.90
2023-05-17T12:52:40.431Z,23.89
2023-05-17T12:53:40.453Z,23.89
2023-05-17T12:54:41.411Z,23.89
2023-05-17T12:55:40.416Z,23.90